Time;durP1;ratioP1;P1;durP2;ratioP2;P2;SDS_P1;SDS_P2;PMS_P1;PMS_P2;Temp;Humidity;BMP_temperature;BMP_pressure;BME280_temperature;BME280_humidity;BME280_pressure;Samples;Min_cycle;Max_cycle;Signal;HPM_P1;HPM_P2
2021/02/27 00:00:53;;;;;;;14;3.9;;;;;;;;;;;;;
2021/02/27 00:03:18;;;;;;;11.3;5;;;;;;;;;;;;;
2021/02/27 00:05:43;;;;;;;5.1;2.9;;;;;;;;;;;;;
2021/02/27 00:08:08;;;;;;;6.2;2.9;;;;;;;;;;;;;
2021/02/27 00:10:35;;;;;;;5.1;3.1;;;;;;;;;;;;;
2021/02/27 00:13:00;;;;;;;8.8;3.8;;;;;;;;;;;;;
2021/02/27 00:15:26;;;;;;;5.8;3.7;;;;;;;;;;;;;
2021/02/27 00:17:51;;;;;;;3.6;2.6;;;;;;;;;;;;;
2021/02/27 00:20:17;;;;;;;5.4;3.3;;;;;;;;;;;;;
2021/02/27 00:22:42;;;;;;;6.7;3;;;;;;;;;;;;;
2021/02/27 00:25:07;;;;;;;9.3;3.4;;;;;;;;;;;;;
2021/02/27 00:27:32;;;;;;;8.3;3.2;;;;;;;;;;;;;
2021/02/27 00:29:58;;;;;;;5;3.6;;;;;;;;;;;;;
2021/02/27 00:32:23;;;;;;;5.5;2.7;;;;;;;;;;;;;
2021/02/27 00:34:48;;;;;;;5.2;2.4;;;;;;;;;;;;;
2021/02/27 00:37:13;;;;;;;6.4;2.7;;;;;;;;;;;;;
2021/02/27 00:39:38;;;;;;;3.5;2.1;;;;;;;;;;;;;
2021/02/27 00:42:04;;;;;;;5.1;2.2;;;;;;;;;;;;;
2021/02/27 00:44:29;;;;;;;3;1.9;;;;;;;;;;;;;
2021/02/27 00:46:54;;;;;;;2.3;1.6;;;;;;;;;;;;;
2021/02/27 00:49:19;;;;;;;5.4;1.9;;;;;;;;;;;;;
2021/02/27 00:51:44;;;;;;;4.7;2.6;;;;;;;;;;;;;
2021/02/27 00:54:10;;;;;;;2.6;1.9;;;;;;;;;;;;;
2021/02/27 00:56:35;;;;;;;3.7;2.6;;;;;;;;;;;;;
2021/02/27 00:59:00;;;;;;;4.5;2;;;;;;;;;;;;;
2021/02/27 01:01:25;;;;;;;6;2.6;;;;;;;;;;;;;
2021/02/27 01:03:50;;;;;;;6.2;2;;;;;;;;;;;;;
2021/02/27 01:06:15;;;;;;;3.1;2.4;;;;;;;;;;;;;
2021/02/27 01:08:40;;;;;;;3.9;2.4;;;;;;;;;;;;;
2021/02/27 01:11:05;;;;;;;5;2.6;;;;;;;;;;;;;
2021/02/27 01:13:31;;;;;;;2.8;1.9;;;;;;;;;;;;;
2021/02/27 01:15:57;;;;;;;5.4;2.4;;;;;;;;;;;;;
2021/02/27 01:18:22;;;;;;;7.3;2.3;;;;;;;;;;;;;
2021/02/27 01:20:48;;;;;;;1.7;1.6;;;;;;;;;;;;;
2021/02/27 01:23:13;;;;;;;1.8;1.3;;;;;;;;;;;;;
2021/02/27 01:25:39;;;;;;;2.4;1.8;;;;;;;;;;;;;
2021/02/27 01:28:05;;;;;;;2.7;1.9;;;;;;;;;;;;;
2021/02/27 01:30:31;;;;;;;3.5;1.8;;;;;;;;;;;;;
2021/02/27 01:32:57;;;;;;;2.8;1.8;;;;;;;;;;;;;
2021/02/27 01:35:23;;;;;;;1.9;1.6;;;;;;;;;;;;;
2021/02/27 01:37:48;;;;;;;2.1;1.8;;;;;;;;;;;;;
2021/02/27 01:40:14;;;;;;;2.5;1.6;;;;;;;;;;;;;
2021/02/27 01:42:39;;;;;;;1.4;1.3;;;;;;;;;;;;;
2021/02/27 01:45:04;;;;;;;1.7;1.4;;;;;;;;;;;;;
2021/02/27 01:47:29;;;;;;;1.7;1.6;;;;;;;;;;;;;
2021/02/27 01:49:55;;;;;;;4;2.1;;;;;;;;;;;;;
2021/02/27 01:52:20;;;;;;;1.9;1.6;;;;;;;;;;;;;
2021/02/27 01:54:46;;;;;;;1.9;1.6;;;;;;;;;;;;;
2021/02/27 01:57:11;;;;;;;2.3;1.8;;;;;;;;;;;;;
2021/02/27 01:59:37;;;;;;;3.4;1.5;;;;;;;;;;;;;
2021/02/27 02:02:04;;;;;;;1.2;1.1;;;;;;;;;;;;;
2021/02/27 02:04:28;;;;;;;1.3;1;;;;;;;;;;;;;
2021/02/27 02:06:53;;;;;;;1;0.8;;;;;;;;;;;;;
2021/02/27 02:09:19;;;;;;;2.5;1.1;;;;;;;;;;;;;
2021/02/27 02:11:44;;;;;;;1.1;0.9;;;;;;;;;;;;;
2021/02/27 02:14:11;;;;;;;1;0.9;;;;;;;;;;;;;
2021/02/27 02:16:36;;;;;;;1.1;0.6;;;;;;;;;;;;;
2021/02/27 02:19:04;;;;;;;1;0.8;;;;;;;;;;;;;
2021/02/27 02:21:29;;;;;;;3.5;0.6;;;;;;;;;;;;;
2021/02/27 02:23:55;;;;;;;0.5;0.4;;;;;;;;;;;;;
2021/02/27 02:26:20;;;;;;;0.4;0.3;;;;;;;;;;;;;
2021/02/27 02:28:46;;;;;;;0.4;0.4;;;;;;;;;;;;;
2021/02/27 02:31:11;;;;;;;0.7;0.4;;;;;;;;;;;;;
2021/02/27 02:33:36;;;;;;;1.5;0.7;;;;;;;;;;;;;
2021/02/27 02:36:01;;;;;;;0.6;0.6;;;;;;;;;;;;;
2021/02/27 02:38:29;;;;;;;1.1;0.5;;;;;;;;;;;;;
2021/02/27 02:40:54;;;;;;;1.2;1.1;;;;;;;;;;;;;
2021/02/27 02:43:22;;;;;;;1.1;0.9;;;;;;;;;;;;;
2021/02/27 02:45:47;;;;;;;3;1;;;;;;;;;;;;;
2021/02/27 02:48:13;;;;;;;1.7;1;;;;;;;;;;;;;
2021/02/27 02:50:38;;;;;;;0.7;0.6;;;;;;;;;;;;;
2021/02/27 02:53:04;;;;;;;1.6;1;;;;;;;;;;;;;
2021/02/27 02:55:29;;;;;;;1.1;0.9;;;;;;;;;;;;;
2021/02/27 02:57:54;;;;;;;1.4;1;;;;;;;;;;;;;
2021/02/27 03:00:20;;;;;;;1.1;1;;;;;;;;;;;;;
2021/02/27 03:02:45;;;;;;;1;0.9;;;;;;;;;;;;;
2021/02/27 03:05:13;;;;;;;1.2;0.7;;;;;;;;;;;;;
2021/02/27 03:07:38;;;;;;;1.9;0.9;;;;;;;;;;;;;
2021/02/27 03:10:05;;;;;;;1.2;1.1;;;;;;;;;;;;;
2021/02/27 03:12:30;;;;;;;1.4;0.7;;;;;;;;;;;;;
2021/02/27 03:14:55;;;;;;;0.8;0.8;;;;;;;;;;;;;
2021/02/27 03:17:21;;;;;;;1;0.8;;;;;;;;;;;;;
2021/02/27 03:19:48;;;;;;;0.8;0.8;;;;;;;;;;;;;
2021/02/27 03:22:13;;;;;;;0.7;0.7;;;;;;;;;;;;;
2021/02/27 03:24:38;;;;;;;1;0.8;;;;;;;;;;;;;
2021/02/27 03:27:04;;;;;;;2.3;0.9;;;;;;;;;;;;;
2021/02/27 03:29:31;;;;;;;0.7;0.6;;;;;;;;;;;;;
2021/02/27 03:31:56;;;;;;;1.4;0.9;;;;;;;;;;;;;
2021/02/27 03:34:22;;;;;;;0.7;0.6;;;;;;;;;;;;;
2021/02/27 03:36:47;;;;;;;1.7;1;;;;;;;;;;;;;
2021/02/27 03:39:14;;;;;;;1.5;1;;;;;;;;;;;;;
2021/02/27 03:41:39;;;;;;;1.1;0.8;;;;;;;;;;;;;
2021/02/27 03:44:05;;;;;;;1.3;0.9;;;;;;;;;;;;;
2021/02/27 03:46:30;;;;;;;1.1;1;;;;;;;;;;;;;
2021/02/27 03:48:56;;;;;;;1.3;1;;;;;;;;;;;;;
2021/02/27 03:51:21;;;;;;;1;0.9;;;;;;;;;;;;;
2021/02/27 03:53:47;;;;;;;1.1;1;;;;;;;;;;;;;
2021/02/27 03:56:12;;;;;;;0.8;0.8;;;;;;;;;;;;;
2021/02/27 03:58:38;;;;;;;1.9;1;;;;;;;;;;;;;
2021/02/27 04:02:31;;;;;;;1.3;1;;;;;;;5.66;88.73047;950.72;;;;
2021/02/27 04:05:01;;;;;;;0.9;0.9;;;;;;;5.5;89.52246;950.7178;;;;
2021/02/27 04:07:26;;;;;;;1.5;1.1;;;;;;;5.44;90.00488;950.7371;;;;
2021/02/27 04:09:56;;;;;;;1.6;1.4;;;;;;;5.48;89.7666;950.8306;;;;
2021/02/27 04:12:21;;;;;;;1.1;0.9;;;;;;;5.42;89.99023;950.8823;;;;
2021/02/27 04:14:50;;;;;;;1.3;0.9;;;;;;;5.5;89.71387;950.8705;;;;
2021/02/27 04:17:23;;;;;;;1.4;1.2;;;;;;;5.47;89.42383;950.9183;;;;
2021/02/27 04:19:53;;;;;;;2.3;1.5;;;;;;;5.43;88.81836;950.8297;;;;
2021/02/27 04:22:19;;;;;;;1.8;1.5;;;;;;;5.33;88.56152;950.9059;;;;
2021/02/27 04:24:48;;;;;;;1.8;1.4;;;;;;;5.33;88.44824;950.9224;;;;
2021/02/27 04:27:14;;;;;;;2;1.4;;;;;;;5.37;88.10645;950.9702;;;;
2021/02/27 04:29:43;;;;;;;1.9;1.5;;;;;;;5.47;87.93652;951.0159;;;;
2021/02/27 04:32:09;;;;;;;1.4;1.3;;;;;;;5.54;87.55469;951.0435;;;;
2021/02/27 04:34:39;;;;;;;2;1.5;;;;;;;5.44;87.42188;951.0451;;;;
2021/02/27 04:37:04;;;;;;;1.9;1.7;;;;;;;5.4;87.56055;951.0491;;;;
2021/02/27 04:39:35;;;;;;;2.1;1.3;;;;;;;5.04;88.40918;951.1239;;;;
2021/02/27 04:42:05;;;;;;;1.8;1.5;;;;;;;5.09;88.48828;951.1619;;;;
2021/02/27 04:44:35;;;;;;;3.1;1.3;;;;;;;5.17;88.24707;951.1157;;;;
2021/02/27 04:47:00;;;;;;;2.2;1.6;;;;;;;5.19;88.24023;951.1609;;;;
2021/02/27 04:49:29;;;;;;;1.6;1.5;;;;;;;5.2;88.48828;951.1612;;;;
2021/02/27 04:51:54;;;;;;;2.2;1.6;;;;;;;5.19;88.24902;951.178;;;;
2021/02/27 04:54:24;;;;;;;1.3;1.2;;;;;;;5.04;88.90723;951.211;;;;
2021/02/27 04:56:54;;;;;;;1.1;1;;;;;;;4.93;89.59277;951.2514;;;;
2021/02/27 04:59:19;;;;;;;1.3;1.2;;;;;;;5;89.51953;951.2141;;;;
2021/02/27 05:01:44;;;;;;;1.8;1.4;;;;;;;4.99;88.88477;951.2867;;;;
2021/02/27 05:04:11;;;;;;;2.6;1.6;;;;;;;4.83;89.16602;951.2203;;;;
2021/02/27 05:06:36;;;;;;;1.7;1.5;;;;;;;4.94;89.15723;951.2924;;;;
2021/02/27 05:09:03;;;;;;;1.2;1.1;;;;;;;4.72;89.64063;951.2877;;;;
2021/02/27 05:11:28;;;;;;;1.9;1.5;;;;;;;4.61;89.63867;951.4182;;;;
2021/02/27 05:13:58;;;;;;;2.9;1.6;;;;;;;4.38;89.66797;951.4077;;;;
2021/02/27 05:16:26;;;;;;;3;1.8;;;;;;;4.45;89.84082;951.4641;;;;
2021/02/27 05:18:55;;;;;;;1.6;1.4;;;;;;;4.46;89.64258;951.4473;;;;
2021/02/27 05:21:20;;;;;;;1.4;1.2;;;;;;;4.39;89.25586;951.3864;;;;
2021/02/27 05:23:49;;;;;;;1.9;1.6;;;;;;;4.35;89.43945;951.4056;;;;
2021/02/27 05:26:14;;;;;;;2.2;1.6;;;;;;;4.37;89.9248;951.3456;;;;
2021/02/27 05:28:43;;;;;;;2.3;1.9;;;;;;;4.46;89.58398;951.435;;;;
2021/02/27 05:31:08;;;;;;;4.7;1.7;;;;;;;4.33;89.97363;951.4802;;;;
2021/02/27 05:33:36;;;;;;;3.3;1.9;;;;;;;4.47;89.71191;951.4381;;;;
2021/02/27 05:36:01;;;;;;;2.2;1.4;;;;;;;4.53;89.64648;951.4242;;;;
2021/02/27 05:38:30;;;;;;;1.9;1.4;;;;;;;4.66;88.91602;951.5288;;;;
2021/02/27 05:40:55;;;;;;;1.5;1.3;;;;;;;4.55;89.0625;951.5449;;;;
2021/02/27 05:43:24;;;;;;;2.3;1.6;;;;;;;4.67;88.68164;951.5341;;;;
2021/02/27 05:45:49;;;;;;;1.6;1.4;;;;;;;4.74;88.43945;951.5112;;;;
2021/02/27 05:48:15;;;;;;;1.5;1.3;;;;;;;4.66;88.45605;951.5906;;;;
2021/02/27 05:50:42;;;;;;;2.1;1.4;;;;;;;4.68;88.06445;951.5435;;;;
2021/02/27 05:53:07;;;;;;;2.4;1.9;;;;;;;4.62;88.32324;951.5112;;;;
2021/02/27 05:55:32;;;;;;;2;1.4;;;;;;;4.5;88.65723;951.5217;;;;
2021/02/27 05:58:00;;;;;;;1.8;1.5;;;;;;;4.51;88.80566;951.5577;;;;
2021/02/27 06:00:25;;;;;;;3.7;1.6;;;;;;;4.45;88.92969;951.6597;;;;
2021/02/27 06:02:52;;;;;;;2.4;1.5;;;;;;;4.55;88.78125;951.6238;;;;
2021/02/27 06:05:17;;;;;;;1.8;1.4;;;;;;;4.51;88.40234;951.6326;;;;
2021/02/27 06:07:44;;;;;;;2.6;1.8;;;;;;;4.35;88.68555;951.7068;;;;
2021/02/27 06:10:10;;;;;;;3.6;2;;;;;;;4.22;89.12793;951.7491;;;;
2021/02/27 06:12:35;;;;;;;2.8;1.9;;;;;;;4.31;89.21387;951.6971;;;;
2021/02/27 06:15:01;;;;;;;2;1.6;;;;;;;4.35;89.12402;951.6595;;;;
2021/02/27 06:17:27;;;;;;;2;1.6;;;;;;;4.45;88.97461;951.7123;;;;
2021/02/27 06:19:55;;;;;;;2.9;1.9;;;;;;;4.44;88.96289;951.8105;;;;
2021/02/27 06:22:21;;;;;;;2.9;2;;;;;;;4.48;89.13965;951.8717;;;;
2021/02/27 06:24:45;;;;;;;1.8;1.6;;;;;;;4.57;88.66309;951.8713;;;;
2021/02/27 06:27:11;;;;;;;2.5;1.9;;;;;;;4.57;88.48242;951.991;;;;
2021/02/27 06:29:36;;;;;;;2.6;2;;;;;;;4.71;87.9834;952.0079;;;;
2021/02/27 06:32:01;;;;;;;3.6;1.8;;;;;;;4.69;87.78613;952.0009;;;;
2021/02/27 06:34:26;;;;;;;3.7;2.2;;;;;;;4.71;87.83496;952.0144;;;;
2021/02/27 06:36:51;;;;;;;3.1;2.1;;;;;;;4.53;87.76367;952.0424;;;;
2021/02/27 06:39:16;;;;;;;2;1.7;;;;;;;4.5;88.4209;952.1133;;;;
2021/02/27 06:41:42;;;;;;;3.4;1.7;;;;;;;4.42;88.70996;952.1731;;;;
2021/02/27 06:44:07;;;;;;;4.5;2.6;;;;;;;4.48;88.97949;952.1973;;;;
2021/02/27 06:46:34;;;;;;;2.6;2.1;;;;;;;4.64;88.55176;952.2718;;;;
2021/02/27 06:48:59;;;;;;;3.2;1.8;;;;;;;4.66;88.53516;952.3069;;;;
2021/02/27 06:51:24;;;;;;;2.6;1.9;;;;;;;4.72;88.12012;952.326;;;;
2021/02/27 06:53:51;;;;;;;4.3;2.2;;;;;;;4.78;87.83887;952.3025;;;;
2021/02/27 06:56:16;;;;;;;5.2;3;;;;;;;4.76;87.71094;952.3187;;;;
2021/02/27 06:58:42;;;;;;;3.8;2.3;;;;;;;4.72;87.82715;952.307;;;;
2021/02/27 07:01:08;;;;;;;3.7;2.7;;;;;;;4.8;87.68457;952.3017;;;;
2021/02/27 07:03:35;;;;;;;2.4;1.7;;;;;;;4.64;88.71191;952.3289;;;;
2021/02/27 07:06:00;;;;;;;3;1.9;;;;;;;4.79;88.07715;952.3867;;;;
2021/02/27 07:08:26;;;;;;;2.2;1.9;;;;;;;4.73;88.33398;952.3998;;;;
2021/02/27 07:10:54;;;;;;;4.4;2.3;;;;;;;4.83;87.7373;952.397;;;;
2021/02/27 07:13:23;;;;;;;3;2.1;;;;;;;4.86;87.54883;952.3391;;;;
2021/02/27 07:16:05;;;;;;;3;2.1;;;;;;;4.9;87.58105;952.3917;;;;
2021/02/27 07:18:30;;;;;;;4.7;2.3;;;;;;;4.9;87.60352;952.2939;;;;
2021/02/27 07:21:03;;;;;;;3.6;2.5;;;;;;;5.11;87.08203;952.3812;;;;
2021/02/27 07:23:32;;;;;;;7.3;3.1;;;;;;;5.03;87.53027;952.3842;;;;
2021/02/27 07:26:17;;;;;;;4.1;2.6;;;;;;;5.03;86.87598;952.4537;;;;
2021/02/27 07:28:26;;;;;;;3.8;2.8;;;;;;;4.86;87.25586;952.4426;;;;
2021/02/27 07:30:56;;;;;;;3.1;2;;;;;;;4.87;86.84473;952.4875;;;;
2021/02/27 07:33:26;;;;;;;3.2;2.5;;;;;;;4.87;87.09082;952.548;;;;
2021/02/27 07:35:57;;;;;;;3.6;2.8;;;;;;;4.78;87.61133;952.4916;;;;
2021/02/27 07:38:27;;;;;;;5.4;2.5;;;;;;;4.82;87.99219;952.5294;;;;
2021/02/27 07:40:59;;;;;;;3.3;2.6;;;;;;;4.76;88.67969;952.5829;;;;
2021/02/27 07:43:24;;;;;;;3.9;2.2;;;;;;;4.95;87.64648;952.6334;;;;
2021/02/27 07:45:49;;;;;;;3.5;2.8;;;;;;;4.79;87.57031;952.6297;;;;
2021/02/27 07:48:15;;;;;;;4.7;2.6;;;;;;;4.87;87.96973;952.7389;;;;
2021/02/27 07:50:40;;;;;;;4.4;2.8;;;;;;;4.98;87.7666;952.66;;;;
2021/02/27 07:53:08;;;;;;;5.5;3;;;;;;;5.14;87.34766;952.6494;;;;
2021/02/27 07:55:35;;;;;;;2.9;2.5;;;;;;;5;86.73535;952.6216;;;;
2021/02/27 07:57:58;;;;;;;5.1;3.1;;;;;;;5.12;86.99414;952.6793;;;;
2021/02/27 08:00:24;;;;;;;3;2.6;;;;;;;5.16;86.46191;952.6295;;;;
2021/02/27 08:02:49;;;;;;;6.4;3.2;;;;;;;5.15;86.4043;952.6856;;;;
2021/02/27 08:05:14;;;;;;;4.6;3.1;;;;;;;5.08;86.49121;952.722;;;;
2021/02/27 08:07:41;;;;;;;5.4;2.9;;;;;;;5.19;86.45605;952.6931;;;;
2021/02/27 08:10:06;;;;;;;4.7;3.1;;;;;;;5.32;85.84082;952.7076;;;;
2021/02/27 08:12:32;;;;;;;4;2.8;;;;;;;5.18;85.63281;952.6702;;;;
2021/02/27 08:14:57;;;;;;;4.1;2.9;;;;;;;5.11;85.78809;952.7216;;;;
2021/02/27 08:17:28;;;;;;;3.4;2.5;;;;;;;4.96;86.51172;952.7195;;;;
2021/02/27 08:19:53;;;;;;;4.6;2.8;;;;;;;4.94;87.44336;952.6957;;;;
2021/02/27 08:22:18;;;;;;;4.1;3;;;;;;;5.02;88.06934;952.6609;;;;
2021/02/27 08:24:43;;;;;;;4.5;3.1;;;;;;;5.21;87.0127;952.6573;;;;
2021/02/27 08:27:09;;;;;;;5.5;3.1;;;;;;;5.42;86.77246;952.7104;;;;
2021/02/27 08:29:35;;;;;;;4.6;3.1;;;;;;;5.29;86.375;952.6855;;;;
2021/02/27 08:32:00;;;;;;;3.8;3;;;;;;;5.36;86.1416;952.6978;;;;
2021/02/27 08:34:26;;;;;;;3.6;2.9;;;;;;;5.36;86.01758;952.7129;;;;
2021/02/27 08:36:54;;;;;;;4.5;3.1;;;;;;;5.37;85.25;952.7407;;;;
2021/02/27 08:39:19;;;;;;;3.5;2.6;;;;;;;5.17;86.31738;952.6813;;;;
2021/02/27 08:41:45;;;;;;;4;2.7;;;;;;;5.25;87.12305;952.7308;;;;
2021/02/27 08:44:10;;;;;;;5.7;3.5;;;;;;;5.35;85.62012;952.7557;;;;
2021/02/27 08:46:35;;;;;;;5;3.1;;;;;;;5.38;85.69531;952.7392;;;;
2021/02/27 08:49:03;;;;;;;5.1;2.7;;;;;;;5.16;86.30469;952.6912;;;;
2021/02/27 08:51:28;;;;;;;6.4;3.6;;;;;;;5;87.71582;952.7596;;;;
2021/02/27 08:53:54;;;;;;;5.4;2.9;;;;;;;5.21;87.06934;952.735;;;;
2021/02/27 08:56:20;;;;;;;8.1;4;;;;;;;5.26;86.29004;952.6965;;;;
2021/02/27 08:58:46;;;;;;;4.7;3.2;;;;;;;5.27;86.2041;952.7202;;;;
2021/02/27 09:01:11;;;;;;;5.6;3.5;;;;;;;5.56;85.67578;952.7828;;;;
2021/02/27 09:03:37;;;;;;;9.4;3.5;;;;;;;5.58;84.65137;952.7808;;;;
2021/02/27 09:06:02;;;;;;;5.3;3.3;;;;;;;5.71;84.48535;952.7664;;;;
2021/02/27 09:08:28;;;;;;;5.1;3.4;;;;;;;5.88;83.99707;952.7559;;;;
2021/02/27 09:10:53;;;;;;;5.9;3;;;;;;;5.93;83.10449;952.7685;;;;
2021/02/27 09:13:20;;;;;;;3.6;2.4;;;;;;;5.93;83.33203;952.7584;;;;
2021/02/27 09:15:53;;;;;;;3.5;1.9;;;;;;;5.65;84.06641;952.817;;;;
2021/02/27 09:18:18;;;;;;;2.6;1.9;;;;;;;5.69;84.40039;952.8258;;;;
2021/02/27 09:20:45;;;;;;;6.3;2.5;;;;;;;5.72;83.88867;952.777;;;;
2021/02/27 09:23:10;;;;;;;2.9;2.2;;;;;;;5.68;84.43457;952.7617;;;;
2021/02/27 09:25:37;;;;;;;3.6;2.9;;;;;;;;;;;;;
2021/02/27 09:28:02;;;;;;;3.3;2.2;;;;;;;;;;;;;
2021/02/27 09:30:27;;;;;;;4.3;2.9;;;;;;;;;;;;;
2021/02/27 09:32:53;;;;;;;3.9;2.4;;;;;;;;;;;;;
2021/02/27 09:35:20;;;;;;;4.1;2.8;;;;;;;;;;;;;
2021/02/27 09:37:45;;;;;;;4.9;2.3;;;;;;;;;;;;;
2021/02/27 09:40:10;;;;;;;4.2;2.2;;;;;;;;;;;;;
2021/02/27 09:42:36;;;;;;;2.4;2;;;;;;;;;;;;;
2021/02/27 09:45:01;;;;;;;3.7;2.8;;;;;;;;;;;;;
2021/02/27 09:47:28;;;;;;;5.6;2.8;;;;;;;;;;;;;
2021/02/27 09:49:53;;;;;;;5.1;2.7;;;;;;;;;;;;;
2021/02/27 09:52:20;;;;;;;4.9;3.2;;;;;;;;;;;;;
2021/02/27 09:54:44;;;;;;;3.8;2.8;;;;;;;;;;;;;
2021/02/27 09:57:09;;;;;;;6.9;3.6;;;;;;;;;;;;;
2021/02/27 09:59:34;;;;;;;8.1;3.8;;;;;;;;;;;;;
2021/02/27 10:02:02;;;;;;;6;3.9;;;;;;;;;;;;;
2021/02/27 10:04:27;;;;;;;6;3.5;;;;;;;;;;;;;
2021/02/27 10:06:52;;;;;;;5;3.2;;;;;;;;;;;;;
2021/02/27 10:09:17;;;;;;;4.6;3.5;;;;;;;;;;;;;
2021/02/27 10:11:42;;;;;;;5.6;3.3;;;;;;;;;;;;;
2021/02/27 10:14:07;;;;;;;6.1;3.4;;;;;;;;;;;;;
2021/02/27 10:16:35;;;;;;;5.2;3.8;;;;;;;;;;;;;
2021/02/27 10:19:02;;;;;;;4.7;2.9;;;;;;;;;;;;;
2021/02/27 10:21:26;;;;;;;5.1;3.4;;;;;;;;;;;;;
2021/02/27 10:23:51;;;;;;;5.6;3.7;;;;;;;;;;;;;
2021/02/27 10:26:17;;;;;;;12;4.3;;;;;;;;;;;;;
2021/02/27 10:28:42;;;;;;;6.7;3.7;;;;;;;;;;;;;
2021/02/27 10:31:08;;;;;;;8.8;3.9;;;;;;;;;;;;;
2021/02/27 10:33:34;;;;;;;6.9;4.3;;;;;;;;;;;;;
2021/02/27 10:35:58;;;;;;;5.9;3.8;;;;;;;;;;;;;
2021/02/27 10:38:24;;;;;;;7.8;3.6;;;;;;;;;;;;;
2021/02/27 10:40:50;;;;;;;5.7;3.8;;;;;;;;;;;;;
2021/02/27 10:43:16;;;;;;;5.3;3.7;;;;;;;;;;;;;
2021/02/27 10:45:43;;;;;;;5.3;3.7;;;;;;;;;;;;;
2021/02/27 10:48:08;;;;;;;8.8;4.2;;;;;;;;;;;;;
2021/02/27 10:50:35;;;;;;;6.9;4.2;;;;;;;;;;;;;
2021/02/27 10:53:00;;;;;;;8.3;4.2;;;;;;;;;;;;;
2021/02/27 10:55:25;;;;;;;7.9;4;;;;;;;;;;;;;
2021/02/27 10:57:50;;;;;;;6.8;4.2;;;;;;;;;;;;;
2021/02/27 11:00:15;;;;;;;5.7;4.2;;;;;;;;;;;;;
2021/02/27 11:02:41;;;;;;;7.4;4.6;;;;;;;;;;;;;
2021/02/27 11:05:07;;;;;;;8.2;4.5;;;;;;;;;;;;;
2021/02/27 11:07:32;;;;;;;5.4;3.5;;;;;;;;;;;;;
2021/02/27 11:09:58;;;;;;;6.7;3.8;;;;;;;;;;;;;
2021/02/27 11:12:23;;;;;;;5.6;3.2;;;;;;;;;;;;;
2021/02/27 11:14:51;;;;;;;5.7;3.7;;;;;;;;;;;;;
2021/02/27 11:17:16;;;;;;;4.9;3.3;;;;;;;;;;;;;
2021/02/27 11:19:44;;;;;;;5.9;3;;;;;;;;;;;;;
2021/02/27 11:22:09;;;;;;;3.9;2.9;;;;;;;;;;;;;
2021/02/27 11:24:35;;;;;;;4.7;3.5;;;;;;;;;;;;;
2021/02/27 11:27:01;;;;;;;6.3;3.6;;;;;;;;;;;;;
2021/02/27 11:29:26;;;;;;;4.5;2.7;;;;;;;;;;;;;
2021/02/27 11:31:51;;;;;;;7.2;4.1;;;;;;;;;;;;;
2021/02/27 11:34:16;;;;;;;7.2;4.1;;;;;;;;;;;;;
2021/02/27 11:36:41;;;;;;;3.2;2.8;;;;;;;;;;;;;
2021/02/27 11:39:08;;;;;;;4.9;3.4;;;;;;;;;;;;;
2021/02/27 11:41:34;;;;;;;5.4;3.4;;;;;;;;;;;;;
2021/02/27 11:44:00;;;;;;;5.3;3.7;;;;;;;;;;;;;
2021/02/27 11:46:24;;;;;;;7.5;3.9;;;;;;;;;;;;;
2021/02/27 11:48:52;;;;;;;4.8;3.6;;;;;;;;;;;;;
2021/02/27 11:51:17;;;;;;;12.9;4.2;;;;;;;;;;;;;
2021/02/27 11:53:42;;;;;;;6.7;3.3;;;;;;;;;;;;;
2021/02/27 11:56:07;;;;;;;3.9;2.6;;;;;;;;;;;;;
2021/02/27 11:58:33;;;;;;;6;3.8;;;;;;;;;;;;;
2021/02/27 12:00:58;;;;;;;5.9;3.8;;;;;;;;;;;;;
2021/02/27 12:03:25;;;;;;;8.1;4.1;;;;;;;;;;;;;
2021/02/27 12:05:50;;;;;;;4.3;2.9;;;;;;;;;;;;;
2021/02/27 12:08:16;;;;;;;6.6;3.3;;;;;;;;;;;;;
2021/02/27 12:10:42;;;;;;;5.7;3.5;;;;;;;;;;;;;
2021/02/27 12:13:08;;;;;;;5.1;3.8;;;;;;;;;;;;;
2021/02/27 12:15:33;;;;;;;5.8;3.3;;;;;;;;;;;;;
2021/02/27 12:17:58;;;;;;;5.4;3.3;;;;;;;;;;;;;
2021/02/27 12:20:24;;;;;;;6.9;3.2;;;;;;;;;;;;;
2021/02/27 12:22:50;;;;;;;6.3;3.7;;;;;;;;;;;;;
2021/02/27 12:25:15;;;;;;;7.8;3.7;;;;;;;;;;;;;
2021/02/27 12:27:41;;;;;;;5.8;2.9;;;;;;;;;;;;;
2021/02/27 12:30:06;;;;;;;6.1;2.9;;;;;;;;;;;;;
2021/02/27 12:32:32;;;;;;;9.9;3.7;;;;;;;;;;;;;
2021/02/27 12:34:57;;;;;;;5.8;3.5;;;;;;;;;;;;;
2021/02/27 12:37:22;;;;;;;4.2;3;;;;;;;;;;;;;
2021/02/27 12:39:48;;;;;;;4.7;3.1;;;;;;;;;;;;;
2021/02/27 12:42:14;;;;;;;4.6;3.1;;;;;;;;;;;;;
2021/02/27 12:44:39;;;;;;;7.3;3.3;;;;;;;;;;;;;
2021/02/27 12:47:05;;;;;;;6.1;3.3;;;;;;;;;;;;;
2021/02/27 12:49:30;;;;;;;6.8;3.4;;;;;;;;;;;;;
2021/02/27 12:51:56;;;;;;;4.2;2.6;;;;;;;;;;;;;
2021/02/27 12:54:21;;;;;;;4.5;2.7;;;;;;;;;;;;;
2021/02/27 12:56:48;;;;;;;3.8;2.5;;;;;;;;;;;;;
2021/02/27 12:59:13;;;;;;;4.8;2.8;;;;;;;;;;;;;
2021/02/27 13:01:40;;;;;;;4.3;2.6;;;;;;;;;;;;;
2021/02/27 13:04:06;;;;;;;3;2.3;;;;;;;;;;;;;
2021/02/27 13:06:31;;;;;;;5.1;2.6;;;;;;;;;;;;;
2021/02/27 13:08:56;;;;;;;4.5;2.4;;;;;;;;;;;;;
2021/02/27 13:11:22;;;;;;;3.4;2.3;;;;;;;;;;;;;
2021/02/27 13:13:46;;;;;;;2.5;1.9;;;;;;;;;;;;;
2021/02/27 13:16:14;;;;;;;2.1;1.8;;;;;;;;;;;;;
2021/02/27 13:18:39;;;;;;;4.3;2.1;;;;;;;;;;;;;
2021/02/27 13:21:05;;;;;;;2.5;2.1;;;;;;;;;;;;;
2021/02/27 13:23:30;;;;;;;4.8;1.9;;;;;;;;;;;;;
2021/02/27 13:25:55;;;;;;;2.7;2;;;;;;;;;;;;;
2021/02/27 13:28:20;;;;;;;5.2;2.2;;;;;;;;;;;;;
2021/02/27 13:30:46;;;;;;;2.7;2.4;;;;;;;;;;;;;
2021/02/27 13:33:12;;;;;;;2.6;1.5;;;;;;;;;;;;;
2021/02/27 13:35:40;;;;;;;2.6;1.8;;;;;;;;;;;;;
2021/02/27 13:38:05;;;;;;;4.1;2.3;;;;;;;;;;;;;
2021/02/27 13:40:30;;;;;;;3.2;1.8;;;;;;;;;;;;;
2021/02/27 13:42:56;;;;;;;1.6;1.5;;;;;;;;;;;;;
2021/02/27 13:45:21;;;;;;;2.3;1.6;;;;;;;;;;;;;
2021/02/27 13:47:47;;;;;;;2.4;1.8;;;;;;;;;;;;;
2021/02/27 13:50:11;;;;;;;3;1.7;;;;;;;;;;;;;
2021/02/27 13:52:43;;;;;;;2.1;1.6;;;;;;;;;;;;;
2021/02/27 13:55:02;;;;;;;2.7;1.8;;;;;;;;;;;;;
2021/02/27 13:57:26;;;;;;;2.3;1.7;;;;;;;;;;;;;
2021/02/27 13:59:51;;;;;;;2;1.5;;;;;;;;;;;;;
2021/02/27 14:02:17;;;;;;;1.5;1.4;;;;;;;;;;;;;
2021/02/27 14:04:43;;;;;;;2.2;1.5;;;;;;;;;;;;;
2021/02/27 14:07:08;;;;;;;1.5;1.3;;;;;;;;;;;;;
2021/02/27 14:09:33;;;;;;;2.4;1.9;;;;;;;;;;;;;
2021/02/27 14:11:58;;;;;;;3.1;1.9;;;;;;;;;;;;;
2021/02/27 14:14:24;;;;;;;2.6;1.7;;;;;;;;;;;;;
2021/02/27 14:16:49;;;;;;;2.5;1.7;;;;;;;;;;;;;
2021/02/27 14:19:16;;;;;;;1.5;1.3;;;;;;;;;;;;;
2021/02/27 14:21:40;;;;;;;1.7;1.6;;;;;;;;;;;;;
2021/02/27 14:24:06;;;;;;;5.9;1.8;;;;;;;;;;;;;
2021/02/27 14:26:31;;;;;;;5.1;2;;;;;;;;;;;;;
2021/02/27 14:28:57;;;;;;;2.9;1.8;;;;;;;;;;;;;
2021/02/27 14:31:23;;;;;;;2.9;1.6;;;;;;;;;;;;;
2021/02/27 14:33:48;;;;;;;1.6;1.5;;;;;;;;;;;;;
2021/02/27 14:36:13;;;;;;;4.1;2.3;;;;;;;;;;;;;
2021/02/27 14:38:40;;;;;;;3.3;2;;;;;;;;;;;;;
2021/02/27 14:41:05;;;;;;;1.7;1.4;;;;;;;;;;;;;
2021/02/27 14:43:31;;;;;;;2.1;1.8;;;;;;;;;;;;;
2021/02/27 14:45:57;;;;;;;3.7;2.2;;;;;;;;;;;;;
2021/02/27 14:48:22;;;;;;;4.2;2.3;;;;;;;;;;;;;
2021/02/27 14:50:47;;;;;;;4.9;1.8;;;;;;;;;;;;;
2021/02/27 14:53:13;;;;;;;3.4;1.7;;;;;;;;;;;;;
2021/02/27 14:55:38;;;;;;;2.2;1.8;;;;;;;;;;;;;
2021/02/27 14:58:04;;;;;;;5.3;1.6;;;;;;;;;;;;;
2021/02/27 15:00:29;;;;;;;3;1.9;;;;;;;;;;;;;
2021/02/27 15:02:56;;;;;;;2.2;1.7;;;;;;;;;;;;;
2021/02/27 15:05:21;;;;;;;3;2;;;;;;;;;;;;;
2021/02/27 15:07:47;;;;;;;2.3;1.3;;;;;;;;;;;;;
2021/02/27 15:10:12;;;;;;;2.3;1.4;;;;;;;;;;;;;
2021/02/27 15:12:38;;;;;;;3.6;2.4;;;;;;;;;;;;;
2021/02/27 15:15:03;;;;;;;2.8;2;;;;;;;;;;;;;
2021/02/27 15:17:32;;;;;;;2.4;1.9;;;;;;;;;;;;;
2021/02/27 15:19:57;;;;;;;2.6;1.9;;;;;;;;;;;;;
2021/02/27 15:22:23;;;;;;;2.5;1.6;;;;;;;;;;;;;
2021/02/27 15:24:48;;;;;;;2.7;1.6;;;;;;;;;;;;;
2021/02/27 15:27:14;;;;;;;3.5;1.8;;;;;;;;;;;;;
2021/02/27 15:29:39;;;;;;;4;2;;;;;;;;;;;;;
2021/02/27 15:32:07;;;;;;;4.4;1.9;;;;;;;;;;;;;
2021/02/27 15:34:30;;;;;;;4.4;2.2;;;;;;;;;;;;;
2021/02/27 15:36:56;;;;;;;4.3;2.2;;;;;;;;;;;;;
2021/02/27 15:39:20;;;;;;;2.9;1.8;;;;;;;;;;;;;
2021/02/27 15:41:46;;;;;;;3.9;1.6;;;;;;;;;;;;;
2021/02/27 15:44:11;;;;;;;3.2;2;;;;;;;;;;;;;
2021/02/27 15:46:36;;;;;;;2.8;1.7;;;;;;;;;;;;;
2021/02/27 15:49:02;;;;;;;3.7;1.5;;;;;;;;;;;;;
2021/02/27 15:51:27;;;;;;;3.2;1.7;;;;;;;;;;;;;
2021/02/27 15:53:53;;;;;;;1.8;1.3;;;;;;;;;;;;;
2021/02/27 15:56:18;;;;;;;2.1;1.4;;;;;;;;;;;;;
2021/02/27 15:58:43;;;;;;;6.4;1.8;;;;;;;;;;;;;
2021/02/27 16:01:08;;;;;;;3.1;1.5;;;;;;;;;;;;;
2021/02/27 16:03:34;;;;;;;1.5;1.4;;;;;;;;;;;;;
2021/02/27 16:06:00;;;;;;;2.8;1.7;;;;;;;;;;;;;
2021/02/27 16:08:25;;;;;;;1.8;1.3;;;;;;;;;;;;;
2021/02/27 16:10:50;;;;;;;1.8;1.3;;;;;;;;;;;;;
2021/02/27 16:13:15;;;;;;;2;1.4;;;;;;;;;;;;;
2021/02/27 16:15:41;;;;;;;1.4;1.2;;;;;;;;;;;;;
2021/02/27 16:18:06;;;;;;;3.1;1.7;;;;;;;;;;;;;
2021/02/27 16:20:31;;;;;;;2.2;1.6;;;;;;;;;;;;;
2021/02/27 16:22:57;;;;;;;1.3;1.1;;;;;;;;;;;;;
2021/02/27 16:25:22;;;;;;;2;1.5;;;;;;;;;;;;;
2021/02/27 16:27:47;;;;;;;2.3;1.4;;;;;;;;;;;;;
2021/02/27 16:30:13;;;;;;;2.2;1.4;;;;;;;;;;;;;
2021/02/27 16:32:38;;;;;;;1.4;1.3;;;;;;;;;;;;;
2021/02/27 16:35:04;;;;;;;1.5;1;;;;;;;;;;;;;
2021/02/27 16:37:29;;;;;;;2.2;1.1;;;;;;;;;;;;;
2021/02/27 16:39:55;;;;;;;3.7;1.5;;;;;;;;;;;;;
2021/02/27 16:42:20;;;;;;;1.8;1.1;;;;;;;;;;;;;
2021/02/27 16:44:46;;;;;;;4;1.4;;;;;;;;;;;;;
2021/02/27 16:47:12;;;;;;;1.2;1.1;;;;;;;;;;;;;
2021/02/27 16:49:38;;;;;;;1.4;1.2;;;;;;;;;;;;;
2021/02/27 16:52:04;;;;;;;2.2;1.2;;;;;;;;;;;;;
2021/02/27 16:54:30;;;;;;;1.9;1;;;;;;;;;;;;;
2021/02/27 16:56:54;;;;;;;1.2;1.1;;;;;;;;;;;;;
2021/02/27 16:59:20;;;;;;;3.4;1.4;;;;;;;;;;;;;
2021/02/27 17:01:45;;;;;;;2.1;1.5;;;;;;;;;;;;;
2021/02/27 17:04:10;;;;;;;1.6;1.4;;;;;;;;;;;;;
2021/02/27 17:06:36;;;;;;;1.9;1.3;;;;;;;;;;;;;
2021/02/27 17:09:01;;;;;;;1.4;1;;;;;;;;;;;;;
2021/02/27 17:11:26;;;;;;;6.6;1.6;;;;;;;;;;;;;
2021/02/27 17:13:51;;;;;;;1.1;1;;;;;;;;;;;;;
2021/02/27 17:16:16;;;;;;;3.3;1.4;;;;;;;;;;;;;
2021/02/27 17:18:41;;;;;;;4.6;1.6;;;;;;;;;;;;;
2021/02/27 17:21:08;;;;;;;1.5;1.1;;;;;;;;;;;;;
2021/02/27 17:23:33;;;;;;;3.6;0.9;;;;;;;;;;;;;
2021/02/27 17:25:58;;;;;;;1;0.7;;;;;;;;;;;;;
2021/02/27 17:28:23;;;;;;;1.1;0.9;;;;;;;;;;;;;
2021/02/27 17:30:50;;;;;;;1.5;0.8;;;;;;;;;;;;;
2021/02/27 17:33:15;;;;;;;1.4;1;;;;;;;;;;;;;
2021/02/27 17:35:40;;;;;;;1;0.9;;;;;;;;;;;;;
2021/02/27 17:38:05;;;;;;;3.1;1.4;;;;;;;;;;;;;
2021/02/27 17:40:30;;;;;;;4.4;1.2;;;;;;;;;;;;;
2021/02/27 17:42:57;;;;;;;1.4;1;;;;;;;;;;;;;
2021/02/27 17:45:20;;;;;;;0.6;0.6;;;;;;;;;;;;;
2021/02/27 17:47:46;;;;;;;1.7;1.1;;;;;;;;;;;;;
2021/02/27 17:50:11;;;;;;;1.9;1.1;;;;;;;;;;;;;
2021/02/27 17:52:37;;;;;;;1.4;1;;;;;;;;;;;;;
2021/02/27 17:55:02;;;;;;;4.3;1.6;;;;;;;;;;;;;
2021/02/27 17:57:27;;;;;;;1.7;1;;;;;;;;;;;;;
2021/02/27 17:59:53;;;;;;;0.9;0.7;;;;;;;;;;;;;
2021/02/27 18:02:20;;;;;;;1.5;1.2;;;;;;;;;;;;;
2021/02/27 18:04:45;;;;;;;2.3;0.8;;;;;;;;;;;;;
2021/02/27 18:07:11;;;;;;;1.2;0.8;;;;;;;;;;;;;
2021/02/27 18:09:36;;;;;;;1.1;0.7;;;;;;;;;;;;;
2021/02/27 18:12:02;;;;;;;1.5;0.8;;;;;;;;;;;;;
2021/02/27 18:14:27;;;;;;;1.9;1;;;;;;;;;;;;;
2021/02/27 18:16:52;;;;;;;1.3;0.8;;;;;;;;;;;;;
2021/02/27 18:19:17;;;;;;;0.8;0.7;;;;;;;;;;;;;
2021/02/27 18:21:44;;;;;;;3.3;1.1;;;;;;;;;;;;;
2021/02/27 18:24:09;;;;;;;1.2;0.8;;;;;;;;;;;;;